Time;durP1;ratioP1;P1;durP2;ratioP2;P2;SDS_P1;SDS_P2;PMS_P1;PMS_P2;Temp;Humidity;BMP_temperature;BMP_pressure;BME280_temperature;BME280_humidity;BME280_pressure;Samples;Min_cycle;Max_cycle;Signal;HPM_P1;HPM_P2
2022/07/11 00:00:00;;;;;;;13.33;7.57;;;;;;;-145.18;100.00;46642.81;4992790;28;20100;-74
2022/07/11 00:02:26;;;;;;;10.17;6.87;;;;;;;-145.18;100.00;46642.81;4992273;28;20050;-74
2022/07/11 00:04:51;;;;;;;8.80;6.37;;;;;;;-145.18;100.00;46654.53;4992742;28;20148;-77
2022/07/11 00:07:17;;;;;;;12.03;6.53;;;;;;;-145.18;100.00;46654.53;4992578;28;20042;-74
2022/07/11 00:09:42;;;;;;;11.87;6.37;;;;;;;-145.18;100.00;46658.44;4992599;28;20049;-76
2022/07/11 00:12:09;;;;;;;16.87;7.43;;;;;;;-145.18;100.00;46656.50;4992024;28;20041;-77
2022/07/11 00:14:35;;;;;;;11.37;7.40;;;;;;;-145.18;100.00;46654.53;4992771;28;20113;-77
2022/07/11 00:17:01;;;;;;;17.37;8.20;;;;;;;-145.18;100.00;46656.50;4991867;28;20044;-75
2022/07/11 00:19:26;;;;;;;7.13;6.00;;;;;;;-145.18;100.00;46652.59;4974980;28;20062;-75
2022/07/11 00:21:52;;;;;;;12.93;7.20;;;;;;;-145.18;100.00;46654.53;4991895;28;20062;-75
2022/07/11 00:24:19;;;;;;;9.63;6.97;;;;;;;-145.18;100.00;46652.59;4992349;28;20438;-75
2022/07/11 00:26:49;;;;;;;11.07;6.60;;;;;;;-145.18;100.00;46658.44;4991929;28;20058;-76
2022/07/11 00:29:15;;;;;;;13.90;7.70;;;;;;;-145.18;100.00;46656.50;4992026;28;20092;-78
2022/07/11 00:31:41;;;;;;;14.47;7.30;;;;;;;-145.18;100.00;46656.50;4991816;28;20106;-77
2022/07/11 00:34:06;;;;;;;10.63;6.53;;;;;;;-145.18;100.00;46656.50;4974606;28;20341;-77
2022/07/11 00:36:32;;;;;;;10.53;6.57;;;;;;;-145.18;100.00;46656.50;4991370;28;20069;-75
2022/07/11 00:38:58;;;;;;;10.73;6.60;;;;;;;-145.18;100.00;46656.50;4991872;28;20069;-77
2022/07/11 00:41:23;;;;;;;13.13;7.20;;;;;;;-145.18;100.00;46658.44;4991564;28;20034;-75
2022/07/11 00:43:57;;;;;;;17.13;7.87;;;;;;;-145.18;100.00;46656.50;4992210;28;20101;-76
2022/07/11 00:46:24;;;;;;;13.77;7.77;;;;;;;-145.18;100.00;46654.53;4991045;28;20380;-77
2022/07/11 00:48:51;;;;;;;16.23;7.20;;;;;;;-145.18;100.00;46660.41;4991833;28;20038;-74
2022/07/11 00:51:20;;;;;;;14.97;7.47;;;;;;;-145.18;100.00;46656.50;4991420;28;20030;-75
2022/07/11 00:53:49;;;;;;;16.60;7.67;;;;;;;-145.18;100.00;46658.44;4992030;28;20023;-75
2022/07/11 00:56:15;;;;;;;17.40;9.63;;;;;;;-145.18;100.00;46656.50;4990900;28;20077;-74
2022/07/11 00:58:41;;;;;;;21.17;10.60;;;;;;;-145.18;100.00;46654.53;4991603;28;20030;-77
2022/07/11 01:01:07;;;;;;;14.97;9.53;;;;;;;-145.18;100.00;46652.59;4990901;28;20435;-77
2022/07/11 01:03:34;;;;;;;16.33;9.23;;;;;;;-145.18;100.00;46654.53;4991112;28;20043;-77
2022/07/11 01:06:00;;;;;;;20.47;8.57;;;;;;;-145.18;100.00;46650.63;4991040;28;20064;-78
2022/07/11 01:08:29;;;;;;;15.57;8.53;;;;;;;-145.18;100.00;46650.63;4973283;28;20634;-77
2022/07/11 01:10:54;;;;;;;17.63;9.73;;;;;;;-145.18;100.00;46650.63;4991130;28;20030;-78
2022/07/11 01:13:19;;;;;;;16.43;8.93;;;;;;;-145.18;100.00;46640.88;4991160;28;20104;-77
2022/07/11 01:15:45;;;;;;;14.70;9.10;;;;;;;-145.18;100.00;46652.59;4973658;28;20492;-78
2022/07/11 01:18:10;;;;;;;11.90;7.73;;;;;;;-145.18;100.00;46650.63;4990731;28;20038;-77
2022/07/11 01:20:36;;;;;;;18.03;9.67;;;;;;;-145.18;100.00;46640.88;4991311;28;20050;-77
2022/07/11 01:23:06;;;;;;;17.47;9.13;;;;;;;-145.18;100.00;46652.59;4990711;28;20032;-79
2022/07/11 01:25:31;;;;;;;14.00;8.20;;;;;;;-145.18;100.00;46650.63;4973630;28;20030;-77
2022/07/11 01:27:58;;;;;;;18.13;8.97;;;;;;;-145.18;100.00;46640.88;4990704;28;20030;-78
2022/07/11 01:30:26;;;;;;;17.93;9.37;;;;;;;-145.18;100.00;46636.94;4991025;28;20411;-77
2022/07/11 01:32:52;;;;;;;20.93;10.17;;;;;;;-145.18;100.00;46640.88;4990754;28;20030;-77
2022/07/11 01:35:18;;;;;;;18.20;10.27;;;;;;;-145.18;100.00;46638.91;4991072;28;20084;-76
2022/07/11 01:37:44;;;;;;;19.43;9.67;;;;;;;-145.18;100.00;46635.00;4990692;28;20499;-77
2022/07/11 01:40:10;;;;;;;20.53;9.50;;;;;;;-145.18;100.00;46652.59;4990715;28;20046;-77
2022/07/11 01:42:35;;;;;;;17.87;10.10;;;;;;;-145.18;100.00;46638.91;4990348;28;20041;-77
2022/07/11 01:45:01;;;;;;;23.40;10.83;;;;;;;-145.18;100.00;46636.94;4990924;28;20026;-76
2022/07/11 01:47:26;;;;;;;19.40;10.17;;;;;;;-145.18;100.00;46636.94;4973149;28;20496;-76
2022/07/11 01:49:52;;;;;;;19.80;9.33;;;;;;;-145.18;100.00;46638.91;4991101;28;20124;-76
2022/07/11 01:52:17;;;;;;;18.73;9.93;;;;;;;-145.18;100.00;46636.94;4990060;28;20061;-76
2022/07/11 01:54:42;;;;;;;16.53;9.63;;;;;;;-145.18;100.00;46635.00;4990874;28;20475;-76
2022/07/11 01:57:09;;;;;;;18.90;9.87;;;;;;;-145.18;100.00;46640.88;4989775;28;20035;-77
2022/07/11 01:59:35;;;;;;;18.80;10.23;;;;;;;-145.18;100.00;46635.00;4989539;28;20093;-77
2022/07/11 02:02:01;;;;;;;20.53;10.07;;;;;;;-145.18;100.00;46633.06;5116300;23;20137;-76
2022/07/11 02:04:26;;;;;;;23.13;10.50;;;;;;;-145.18;100.00;46635.00;4979020;28;20090;-75
2022/07/11 02:06:51;;;;;;;20.90;9.73;;;;;;;-145.18;100.00;46635.00;4989547;28;20038;-75
2022/07/11 02:09:17;;;;;;;16.07;8.70;;;;;;;-145.18;100.00;46631.09;5009516;28;20065;-75
2022/07/11 02:11:42;;;;;;;17.13;8.57;;;;;;;-145.18;100.00;46636.94;5009819;28;20048;-76
2022/07/11 02:14:07;;;;;;;16.03;8.23;;;;;;;-145.18;100.00;46636.94;5009967;28;20068;-76
2022/07/11 02:16:33;;;;;;;16.67;7.80;;;;;;;-145.18;100.00;46635.00;5009969;28;20042;-75
2022/07/11 02:18:58;;;;;;;13.63;7.77;;;;;;;-145.18;100.00;46633.06;5009598;28;20347;-76
2022/07/11 02:21:24;;;;;;;12.87;7.03;;;;;;;-145.18;100.00;46638.91;5009947;28;20053;-75
2022/07/11 02:23:50;;;;;;;15.97;7.13;;;;;;;-145.18;100.00;46638.91;5009573;28;20041;-75
2022/07/11 02:26:15;;;;;;;16.23;6.60;;;;;;;-145.18;100.00;46638.91;5010109;28;20406;-75
2022/07/11 02:28:42;;;;;;;14.10;6.80;;;;;;;-145.18;100.00;46638.91;5009265;28;20402;-76
2022/07/11 02:31:08;;;;;;;13.30;7.20;;;;;;;-145.18;100.00;46640.88;5010069;28;20124;-75
2022/07/11 02:33:33;;;;;;;15.00;7.33;;;;;;;-145.18;100.00;46640.88;5009713;28;20184;-76
2022/07/11 02:35:59;;;;;;;15.57;6.77;;;;;;;-145.18;100.00;46638.91;5010221;28;20041;-75
2022/07/11 02:38:25;;;;;;;13.83;7.47;;;;;;;-145.18;100.00;46638.91;5009913;28;20066;-75
2022/07/11 02:40:50;;;;;;;14.20;6.83;;;;;;;-145.18;100.00;46640.88;5009985;28;20038;-75
2022/07/11 02:43:15;;;;;;;11.77;5.97;;;;;;;-145.18;100.00;46652.59;4989570;28;20050;-75
2022/07/11 02:45:41;;;;;;;13.50;7.57;;;;;;;-145.18;100.00;46640.88;4990188;28;20050;-75
2022/07/11 02:48:06;;;;;;;17.47;7.97;;;;;;;-145.18;100.00;46650.63;4989733;28;20034;-75
2022/07/11 02:50:31;;;;;;;14.50;8.27;;;;;;;-145.18;100.00;46652.59;4990319;28;20508;-75
2022/07/11 02:52:57;;;;;;;13.63;7.20;;;;;;;-145.18;100.00;46650.63;4989730;28;20038;-75
2022/07/11 02:55:22;;;;;;;14.67;8.20;;;;;;;-145.18;100.00;46650.63;4990409;28;20117;-75
2022/07/11 02:57:47;;;;;;;17.07;8.87;;;;;;;-145.18;100.00;46652.59;4989360;28;20118;-75
2022/07/11 03:00:16;;;;;;;15.20;8.30;;;;;;;-145.18;100.00;46654.53;4990348;28;20073;-75
2022/07/11 03:02:42;;;;;;;12.13;7.37;;;;;;;-145.18;100.00;46650.63;4976047;28;20530;-75
2022/07/11 03:05:08;;;;;;;17.77;8.33;;;;;;;-145.18;100.00;46654.53;4953147;28;20055;-76
2022/07/11 03:07:34;;;;;;;13.37;6.93;;;;;;;-145.18;100.00;46652.59;4970533;28;20173;-75
2022/07/11 03:09:59;;;;;;;11.10;6.27;;;;;;;-145.18;100.00;46650.63;4972002;28;20043;-75
2022/07/11 03:12:25;;;;;;;8.30;5.93;;;;;;;-145.18;100.00;46652.59;4973899;28;20027;-75
2022/07/11 03:14:50;;;;;;;13.57;6.77;;;;;;;-145.18;100.00;46652.59;4974387;28;20178;-76
2022/07/11 03:17:17;;;;;;;12.13;6.83;;;;;;;-145.18;100.00;46642.81;4974011;28;20540;-75
2022/07/11 03:19:43;;;;;;;10.60;5.73;;;;;;;-145.18;100.00;46652.59;4974219;28;20129;-75
2022/07/11 03:22:08;;;;;;;12.80;6.90;;;;;;;-145.18;100.00;46642.81;4973596;28;20114;-75
2022/07/11 03:24:34;;;;;;;11.70;7.60;;;;;;;-145.18;100.00;46652.59;4974285;28;20597;-75
2022/07/11 03:26:59;;;;;;;10.80;8.17;;;;;;;-145.18;100.00;46650.63;4956258;28;20093;-75
2022/07/11 03:29:24;;;;;;;11.07;7.37;;;;;;;-145.18;100.00;46656.50;4973994;28;20429;-75
2022/07/11 03:31:50;;;;;;;17.43;8.33;;;;;;;-145.18;100.00;46656.50;4973602;28;20122;-76
2022/07/11 03:34:15;;;;;;;15.07;8.00;;;;;;;-145.18;100.00;46652.59;4973478;28;20144;-77
2022/07/11 03:36:40;;;;;;;11.20;6.93;;;;;;;-145.18;100.00;46654.53;4973894;28;20034;-76
2022/07/11 03:39:06;;;;;;;11.83;7.37;;;;;;;-145.18;100.00;46652.59;4973837;28;20126;-76
2022/07/11 03:41:31;;;;;;;16.17;7.93;;;;;;;-145.18;100.00;46652.59;4973830;28;20478;-76
2022/07/11 03:43:57;;;;;;;18.53;9.53;;;;;;;-145.18;100.00;46656.50;4973106;28;20049;-75
2022/07/11 03:46:23;;;;;;;18.07;7.43;;;;;;;-145.18;100.00;46658.44;4974034;28;20042;-76
2022/07/11 03:48:49;;;;;;;15.30;7.33;;;;;;;-145.18;100.00;46658.44;4973083;28;20050;-76
2022/07/11 03:51:16;;;;;;;19.37;8.63;;;;;;;-145.18;100.00;46654.53;4973572;28;20105;-76
2022/07/11 03:53:42;;;;;;;18.00;7.27;;;;;;;-145.18;100.00;46654.53;4973272;28;20446;-76
2022/07/11 03:56:07;;;;;;;14.67;8.50;;;;;;;-145.18;100.00;46652.59;4956451;28;20046;-76
2022/07/11 03:58:33;;;;;;;15.13;7.53;;;;;;;-145.18;100.00;46654.53;4973448;28;20077;-76
2022/07/11 04:00:58;;;;;;;25.33;8.40;;;;;;;-145.18;100.00;46652.59;4973613;28;20403;-76
2022/07/11 04:03:25;;;;;;;16.00;8.37;;;;;;;-145.18;100.00;46652.59;4972821;28;20051;-76
2022/07/11 04:05:51;;;;;;;21.67;8.27;;;;;;;-145.18;100.00;46656.50;4956236;28;20035;-76
2022/07/11 04:08:16;;;;;;;22.03;7.90;;;;;;;-145.18;100.00;46652.59;4972704;28;20030;-76
2022/07/11 04:10:42;;;;;;;14.47;8.47;;;;;;;-145.18;100.00;46650.63;4973373;28;20113;-76
2022/07/11 04:13:07;;;;;;;13.47;7.43;;;;;;;-145.18;100.00;46650.63;4973009;28;20372;-76
2022/07/11 04:15:33;;;;;;;17.17;8.67;;;;;;;-145.18;100.00;46654.53;4955960;28;20067;-75
2022/07/11 04:17:58;;;;;;;19.57;9.27;;;;;;;-145.18;100.00;46650.63;4972344;28;20045;-75
2022/07/11 04:20:23;;;;;;;14.20;7.80;;;;;;;-145.18;100.00;46656.50;4973101;28;20026;-75
2022/07/11 04:22:49;;;;;;;17.03;8.20;;;;;;;-145.18;100.00;46652.59;4971959;28;20058;-77
2022/07/11 04:25:14;;;;;;;17.30;7.70;;;;;;;-145.18;100.00;46642.81;4973094;28;20031;-76
2022/07/11 04:27:39;;;;;;;15.67;8.73;;;;;;;-145.18;100.00;46650.63;4972205;28;20590;-76
2022/07/11 04:30:05;;;;;;;15.17;8.20;;;;;;;-145.18;100.00;46652.59;4972891;28;20563;-76
2022/07/11 04:32:31;;;;;;;14.07;8.20;;;;;;;-145.18;100.00;46654.53;4972235;28;20038;-76
2022/07/11 04:34:56;;;;;;;18.37;9.83;;;;;;;-145.18;100.00;46656.50;4971262;28;20027;-76
2022/07/11 04:37:21;;;;;;;15.07;9.27;;;;;;;-145.18;100.00;46650.63;4954212;28;20038;-75
2022/07/11 04:39:47;;;;;;;16.13;9.50;;;;;;;-145.18;100.00;46656.50;4978071;28;20411;-76
2022/07/11 04:42:13;;;;;;;16.70;9.97;;;;;;;-145.18;100.00;46652.59;4981144;28;20084;-75
2022/07/11 04:44:38;;;;;;;22.43;10.50;;;;;;;-145.18;100.00;46656.50;4981593;28;20034;-76
2022/07/11 04:47:04;;;;;;;16.80;11.43;;;;;;;-145.18;100.00;46656.50;4985990;28;20710;-75
2022/07/11 04:49:29;;;;;;;16.03;9.93;;;;;;;-145.18;100.00;46660.41;4984135;28;20042;-76
2022/07/11 04:51:56;;;;;;;21.37;10.97;;;;;;;-145.18;100.00;46654.53;4964509;28;20062;-76
2022/07/11 04:54:22;;;;;;;20.60;10.63;;;;;;;-145.18;100.00;46660.41;4978706;28;20029;-76
2022/07/11 04:56:48;;;;;;;16.47;10.53;;;;;;;-145.18;100.00;46656.50;4982017;28;20058;-76
2022/07/11 04:59:13;;;;;;;26.13;11.47;;;;;;;-145.18;100.00;46654.53;4980365;28;20128;-76
2022/07/11 05:01:38;;;;;;;16.40;10.27;;;;;;;-145.18;100.00;46660.41;4985819;28;20034;-77
2022/07/11 05:04:04;;;;;;;17.37;10.07;;;;;;;-145.18;100.00;46652.59;4987842;28;20051;-76
2022/07/11 05:06:29;;;;;;;19.73;11.37;;;;;;;-145.18;100.00;46658.44;4959681;28;20167;-76
2022/07/11 05:08:54;;;;;;;22.90;12.37;;;;;;;-145.18;100.00;46654.53;4954255;28;20039;-77
2022/07/11 05:11:20;;;;;;;19.47;11.77;;;;;;;-145.18;100.00;46656.50;4972205;28;20062;-77
2022/07/11 05:13:46;;;;;;;17.17;12.03;;;;;;;-145.18;100.00;46658.44;4971473;28;20045;-76
2022/07/11 05:16:12;;;;;;;22.43;13.63;;;;;;;-145.18;100.00;46660.41;4971980;28;20023;-76
2022/07/11 05:18:38;;;;;;;18.13;12.73;;;;;;;-145.18;100.00;46656.50;4971654;28;20436;-76
2022/07/11 05:21:03;;;;;;;20.03;12.53;;;;;;;-145.18;100.00;46658.44;4971429;28;20126;-77
2022/07/11 05:23:28;;;;;;;20.30;13.30;;;;;;;-145.18;100.00;46660.41;4971401;28;20043;-76
2022/07/11 05:25:54;;;;;;;19.53;12.70;;;;;;;-145.18;100.00;46658.44;4971527;28;20131;-76
2022/07/11 05:28:19;;;;;;;15.90;12.60;;;;;;;-145.18;100.00;46660.41;4953987;28;20542;-76
2022/07/11 05:30:44;;;;;;;17.50;12.40;;;;;;;-145.18;100.00;46660.41;4971459;28;20035;-76
2022/07/11 05:33:10;;;;;;;20.07;13.23;;;;;;;-145.18;100.00;46660.41;4970817;28;20070;-76
2022/07/11 05:35:35;;;;;;;16.57;11.13;;;;;;;-145.18;100.00;46660.41;4971624;28;20066;-76
2022/07/11 05:38:00;;;;;;;16.40;11.70;;;;;;;-145.18;100.00;46656.50;4970971;28;20035;-76
2022/07/11 05:40:26;;;;;;;17.10;11.60;;;;;;;-145.18;100.00;46660.41;4971491;28;20066;-77
2022/07/11 05:42:51;;;;;;;21.03;12.33;;;;;;;-145.18;100.00;46658.44;4970911;28;20050;-76
2022/07/11 05:45:17;;;;;;;17.37;11.27;;;;;;;-145.18;100.00;46660.41;4971184;28;20480;-76
2022/07/11 05:47:42;;;;;;;15.10;11.30;;;;;;;-145.18;100.00;46660.41;4969852;28;20479;-76
2022/07/11 05:50:08;;;;;;;15.53;10.87;;;;;;;-145.18;100.00;46660.41;4969472;28;20348;-77
2022/07/11 05:52:33;;;;;;;20.90;11.00;;;;;;;-145.18;100.00;46660.41;4969911;28;20421;-76
2022/07/11 05:54:59;;;;;;;20.13;11.97;;;;;;;-145.18;100.00;46660.41;4970667;28;20035;-76
2022/07/11 05:57:24;;;;;;;18.57;11.60;;;;;;;-145.18;100.00;46660.41;4970730;28;20034;-76
2022/07/11 05:59:50;;;;;;;15.90;11.93;;;;;;;-145.18;100.00;46660.41;4970609;28;20050;-76
2022/07/11 06:02:16;;;;;;;18.80;11.40;;;;;;;-145.18;100.00;46660.41;4970655;28;20054;-77
2022/07/11 06:04:42;;;;;;;21.57;11.57;;;;;;;-145.18;100.00;46658.44;4970673;28;20031;-76
2022/07/11 06:07:08;;;;;;;19.03;12.37;;;;;;;-145.18;100.00;46660.41;4971673;28;20167;-76
2022/07/11 06:09:33;;;;;;;20.50;11.70;;;;;;;-145.18;100.00;46660.41;4970968;28;20439;-76
2022/07/11 06:11:59;;;;;;;18.47;11.47;;;;;;;-145.18;100.00;46660.41;4971157;28;20102;-76
2022/07/11 06:14:24;;;;;;;18.00;11.27;;;;;;;-145.18;100.00;46660.41;4970728;28;20030;-76
2022/07/11 06:16:51;;;;;;;18.47;11.50;;;;;;;-145.18;100.00;46660.41;4970748;28;20430;-76
2022/07/11 06:19:16;;;;;;;18.27;12.37;;;;;;;-145.18;100.00;46660.41;4971011;28;20043;-76
2022/07/11 06:21:41;;;;;;;22.43;13.10;;;;;;;-145.18;100.00;46660.41;4970843;28;20034;-76
2022/07/11 06:24:07;;;;;;;21.70;13.97;;;;;;;-145.18;100.00;46660.41;4970731;28;20034;-76
2022/07/11 06:26:33;;;;;;;22.57;13.20;;;;;;;-145.18;100.00;46660.41;4971150;28;20393;-75
2022/07/11 06:28:58;;;;;;;20.90;13.57;;;;;;;-145.18;100.00;46660.41;4970171;28;20562;-76
2022/07/11 06:31:24;;;;;;;27.23;14.00;;;;;;;-145.18;100.00;46658.44;4979901;28;20035;-75
2022/07/11 06:33:54;;;;;;;22.03;14.40;;;;;;;-145.18;100.00;46658.44;4986990;28;20026;-76
2022/07/11 06:36:22;;;;;;;23.73;14.80;;;;;;;-145.18;100.00;46660.41;4990588;28;20066;-75
2022/07/11 06:38:48;;;;;;;29.50;15.63;;;;;;;-145.18;100.00;46658.44;4989886;28;20030;-76
2022/07/11 06:41:14;;;;;;;30.80;14.87;;;;;;;-145.18;100.00;46660.41;4990502;28;20512;-76
2022/07/11 06:43:39;;;;;;;23.43;13.90;;;;;;;-145.18;100.00;46660.41;4990244;28;20031;-75
2022/07/11 06:46:05;;;;;;;26.47;15.50;;;;;;;-145.18;100.00;46658.44;4993597;28;20495;-75
2022/07/11 06:48:30;;;;;;;19.77;12.37;;;;;;;-145.18;100.00;46619.38;4993674;28;20110;-75
2022/07/11 06:50:55;;;;;;;18.30;12.20;;;;;;;-145.18;100.00;46617.41;4993822;28;20030;-76
2022/07/11 06:53:21;;;;;;;16.03;10.20;;;;;;;-145.18;100.00;46623.28;4993563;28;20479;-76
2022/07/11 06:55:46;;;;;;;17.70;11.40;;;;;;;-145.18;100.00;46623.28;4976617;28;20150;-75
2022/07/11 06:58:31;;;;;;;14.63;10.60;;;;;;;-145.18;100.00;46625.22;4993662;28;20129;-75
2022/07/11 07:00:57;;;;;;;14.33;10.73;;;;;;;-145.18;100.00;46625.22;4993138;28;20502;-76
2022/07/11 07:03:22;;;;;;;15.67;10.20;;;;;;;-145.18;100.00;46621.31;4993009;28;20054;-76
2022/07/11 07:05:48;;;;;;;15.43;10.53;;;;;;;-145.18;100.00;46621.31;4993335;28;20056;-76
2022/07/11 07:08:17;;;;;;;16.17;10.77;;;;;;;-145.18;100.00;46623.28;4993280;28;20042;-75
2022/07/11 07:10:42;;;;;;;17.83;11.40;;;;;;;-145.18;100.00;46627.19;4993567;28;20038;-75
2022/07/11 07:13:08;;;;;;;16.53;11.40;;;;;;;-145.18;100.00;46621.31;4975941;28;20474;-75
2022/07/11 07:15:33;;;;;;;15.80;10.93;;;;;;;-145.18;100.00;46627.19;4993620;28;20069;-75
2022/07/11 07:17:58;;;;;;;17.00;11.30;;;;;;;-145.18;100.00;46627.19;5000278;28;20040;-75
2022/07/11 07:20:24;;;;;;;19.20;11.70;;;;;;;-145.18;100.00;46623.28;5013225;28;20571;-75
2022/07/11 07:22:49;;;;;;;17.53;11.03;;;;;;;-145.18;100.00;46623.28;5012772;28;20527;-76
2022/07/11 07:25:14;;;;;;;14.73;10.53;;;;;;;-145.18;100.00;46625.22;5013017;28;20451;-75
2022/07/11 07:27:40;;;;;;;17.10;10.77;;;;;;;-145.18;100.00;46625.22;5012803;28;20444;-75
2022/07/11 07:30:06;;;;;;;21.60;11.43;;;;;;;-145.18;100.00;46623.28;5012390;28;20041;-76
2022/07/11 07:32:31;;;;;;;20.43;13.30;;;;;;;-145.18;100.00;46625.22;5013120;28;20722;-75
2022/07/11 07:34:57;;;;;;;22.43;14.27;;;;;;;-145.18;100.00;46621.31;5012259;28;20042;-75
2022/07/11 07:37:22;;;;;;;28.93;14.30;;;;;;;-145.18;100.00;46621.31;5013403;28;20394;-75
2022/07/11 07:39:47;;;;;;;23.50;15.03;;;;;;;-145.18;100.00;46621.31;5012551;28;20478;-76
2022/07/11 07:42:13;;;;;;;22.27;15.00;;;;;;;-145.18;100.00;46621.31;5012708;28;20078;-76
2022/07/11 07:44:39;;;;;;;23.07;14.77;;;;;;;-145.18;100.00;46621.31;4995017;28;20057;-76
2022/07/11 07:47:04;;;;;;;20.00;13.63;;;;;;;-145.18;100.00;46627.19;5012661;28;20049;-76
2022/07/11 07:49:29;;;;;;;22.97;14.77;;;;;;;-145.18;100.00;46627.19;5012443;28;20045;-75
2022/07/11 07:51:55;;;;;;;25.03;14.40;;;;;;;-145.18;100.00;46625.22;4995293;28;20036;-76
2022/07/11 07:54:20;;;;;;;19.60;13.33;;;;;;;-145.18;100.00;46625.22;5012791;28;20472;-76
2022/07/11 07:56:45;;;;;;;20.30;13.47;;;;;;;-145.18;100.00;46627.19;5012459;28;20037;-75
2022/07/11 07:59:11;;;;;;;22.20;13.97;;;;;;;-145.18;100.00;46625.22;5011974;28;20072;-76
2022/07/11 08:01:36;;;;;;;24.70;15.13;;;;;;;-145.18;100.00;46625.22;5012746;28;20483;-76
2022/07/11 08:04:06;;;;;;;20.90;14.03;;;;;;;-145.18;100.00;46627.19;5011980;28;20053;-76
2022/07/11 08:06:34;;;;;;;19.27;13.20;;;;;;;-145.18;100.00;46627.19;5012610;28;20034;-76
2022/07/11 08:08:59;;;;;;;16.63;11.57;;;;;;;-145.18;100.00;46625.22;5011912;28;20096;-76
2022/07/11 08:11:25;;;;;;;19.70;13.17;;;;;;;-145.18;100.00;46633.06;5012159;28;20445;-76
2022/07/11 08:13:51;;;;;;;16.70;12.47;;;;;;;-145.18;100.00;46627.19;4993695;28;20144;-76
2022/07/11 08:16:17;;;;;;;16.37;11.80;;;;;;;-145.18;100.00;46635.00;5012330;28;20092;-76
2022/07/11 08:18:43;;;;;;;22.30;15.07;;;;;;;-145.18;100.00;46627.19;5011628;28;20048;-76
2022/07/11 08:21:09;;;;;;;16.87;12.87;;;;;;;-145.18;100.00;46629.13;5011923;28;20030;-75
2022/07/11 08:23:34;;;;;;;18.23;13.90;;;;;;;-145.18;100.00;46633.06;5011389;28;20041;-76
2022/07/11 08:26:00;;;;;;;18.53;11.87;;;;;;;-145.18;100.00;46635.00;5012053;28;20041;-75
2022/07/11 08:28:25;;;;;;;14.77;11.90;;;;;;;-145.18;100.00;46635.00;5011540;28;20088;-76
2022/07/11 08:30:50;;;;;;;14.10;11.67;;;;;;;-145.18;100.00;46633.06;4994388;28;20038;-75
2022/07/11 08:33:16;;;;;;;15.60;11.87;;;;;;;-145.18;100.00;46635.00;5011537;28;20112;-76
2022/07/11 08:35:41;;;;;;;14.67;10.20;;;;;;;-145.18;100.00;46633.06;5012237;28;20037;-76
2022/07/11 08:38:07;;;;;;;14.93;11.33;;;;;;;-145.18;100.00;46638.91;5011151;28;20033;-76
2022/07/11 08:40:32;;;;;;;13.60;9.20;;;;;;;-145.18;100.00;46640.88;5011862;28;20449;-75
2022/07/11 08:42:58;;;;;;;11.77;8.90;;;;;;;-145.18;100.00;46640.88;5011364;28;20038;-75
2022/07/11 08:45:29;;;;;;;9.97;8.03;;;;;;;-145.18;100.00;46642.81;5011725;28;20065;-75
2022/07/11 08:47:56;;;;;;;14.37;9.67;;;;;;;-145.18;100.00;46640.88;5011009;28;20525;-76
2022/07/11 08:50:23;;;;;;;9.93;7.83;;;;;;;-145.18;100.00;46638.91;5011583;28;20083;-76
2022/07/11 08:52:48;;;;;;;13.10;8.93;;;;;;;-145.18;100.00;46640.88;5011493;28;20036;-75
2022/07/11 08:55:13;;;;;;;10.17;8.40;;;;;;;-145.18;100.00;46644.78;5009091;28;20037;-76
2022/07/11 08:57:39;;;;;;;14.67;9.10;;;;;;;-145.18;100.00;46646.72;4979858;28;20065;-75
2022/07/11 09:00:07;;;;;;;9.63;7.93;;;;;;;-145.18;100.00;46648.69;5001548;28;20184;-76
2022/07/11 09:02:33;;;;;;;11.40;10.20;;;;;;;-145.18;100.00;46648.69;4997325;28;20053;-75
2022/07/11 09:05:02;;;;;;;11.37;9.57;;;;;;;-145.18;100.00;46646.72;5010746;28;20128;-76
2022/07/11 09:07:28;;;;;;;9.97;8.67;;;;;;;-145.18;100.00;46650.63;5011009;28;20030;-75
2022/07/11 09:09:54;;;;;;;9.70;8.53;;;;;;;-145.18;100.00;46646.72;5008015;28;20416;-76
2022/07/11 09:12:20;;;;;;;9.87;8.67;;;;;;;-145.18;100.00;46648.69;4990633;28;20022;-76
2022/07/11 09:14:48;;;;;;;13.87;10.07;;;;;;;-145.18;100.00;46646.72;4991318;28;20132;-76
2022/07/11 09:17:13;;;;;;;12.43;9.13;;;;;;;-145.18;100.00;46650.63;4991328;28;20197;-76
2022/07/11 09:19:39;;;;;;;10.07;8.40;;;;;;;-145.18;100.00;46652.59;4991312;28;20143;-75
2022/07/11 09:27:48;;;;;;;10.13;7.93;;;;;;;-145.18;100.00;46654.53;4992033;28;20041;-76
2022/07/11 09:30:18;;;;;;;10.03;8.13;;;;;;;-145.18;100.00;46660.41;5004243;28;20037;-75
2022/07/11 09:32:55;;;;;;;9.67;7.17;;;;;;;-145.18;100.00;46660.41;5007783;28;20034;-75
2022/07/11 09:35:22;;;;;;;8.20;6.63;;;;;;;-145.18;100.00;46656.50;5010581;28;20446;-76
2022/07/11 09:37:48;;;;;;;9.43;7.10;;;;;;;-145.18;100.00;46654.53;5010598;28;20028;-76
2022/07/11 09:40:17;;;;;;;12.30;8.07;;;;;;;-145.18;100.00;46662.34;4992593;28;20034;-76
2022/07/11 09:42:54;;;;;;;8.13;6.97;;;;;;;-145.18;100.00;46666.25;5010943;28;20441;-75
2022/07/11 09:45:20;;;;;;;7.10;6.40;;;;;;;-145.18;100.00;46668.22;5010146;28;20029;-75
2022/07/11 09:47:51;;;;;;;8.40;6.70;;;;;;;-145.18;100.00;46664.31;5010769;28;20077;-75
2022/07/11 09:50:28;;;;;;;7.60;6.23;;;;;;;-145.18;100.00;46664.31;5010349;28;20033;-75
2022/07/11 09:53:11;;;;;;;9.60;7.20;;;;;;;-145.18;100.00;46670.16;5010348;28;20546;-75
2022/07/11 09:55:42;;;;;;;6.53;5.87;;;;;;;-145.18;100.00;46666.25;5010393;28;20564;-76
2022/07/11 09:58:10;;;;;;;8.63;7.20;;;;;;;-145.18;100.00;46662.34;5010307;28;20114;-76
2022/07/11 10:00:38;;;;;;;6.80;5.73;;;;;;;-145.18;100.00;46662.34;5010658;28;20037;-75
2022/07/11 10:03:05;;;;;;;7.40;5.67;;;;;;;-145.18;100.00;46664.31;5009721;28;20058;-75
2022/07/11 10:05:31;;;;;;;7.40;5.70;;;;;;;-145.18;100.00;46664.31;5009509;28;20368;-75
2022/07/11 10:07:58;;;;;;;6.57;5.00;;;;;;;-145.18;100.00;46666.25;5010248;28;20072;-76
2022/07/11 10:10:25;;;;;;;7.53;5.20;;;;;;;-145.18;100.00;46662.34;5009981;28;20370;-76
2022/07/11 10:12:51;;;;;;;7.13;5.30;;;;;;;-145.18;100.00;46664.31;5010404;28;20061;-76
2022/07/11 10:15:20;;;;;;;8.20;6.27;;;;;;;-145.18;100.00;46666.25;5009777;28;20049;-75
2022/07/11 10:17:55;;;;;;;7.57;6.13;;;;;;;-145.18;100.00;46664.31;5008667;28;20033;-75
2022/07/11 10:20:23;;;;;;;8.30;6.53;;;;;;;-145.18;100.00;46666.25;5011825;28;20030;-75
2022/07/11 10:23:00;;;;;;;8.90;5.60;;;;;;;-145.18;100.00;46662.34;5013991;28;20030;-75
2022/07/11 10:25:35;;;;;;;6.87;5.93;;;;;;;-145.18;100.00;46662.34;5013729;28;20394;-75
2022/07/11 10:28:20;;;;;;;5.55;4.38;;;;;;;-145.18;100.00;46664.31;5013987;28;20030;-75
2022/07/11 10:30:59;;;;;;;7.50;4.15;;;;;;;-145.18;100.00;46664.31;5014162;28;20032;-75
2022/07/11 10:33:26;;;;;;;3.43;3.10;;;;;;;-145.18;100.00;46666.25;5013964;28;20026;-75
2022/07/11 10:35:52;;;;;;;5.63;3.07;;;;;;;-145.18;100.00;46670.16;5014099;28;20076;-76
2022/07/11 10:38:18;;;;;;;3.37;2.90;;;;;;;-145.18;100.00;46670.16;5013962;28;20044;-75
2022/07/11 10:40:56;;;;;;;4.90;3.10;;;;;;;-145.18;100.00;46590.06;5013613;28;20034;-75
2022/07/11 10:43:22;;;;;;;4.33;3.27;;;;;;;-145.18;100.00;46547.09;5013431;28;20391;-75
2022/07/11 10:46:02;;;;;;;5.97;2.87;;;;;;;-145.18;100.00;46543.19;5013081;28;20036;-75
2022/07/11 10:48:30;;;;;;;4.37;3.23;;;;;;;-145.18;100.00;46541.25;5013694;28;20054;-75
2022/07/11 10:51:16;;;;;;;3.27;2.97;;;;;;;-145.18;100.00;46541.25;5013510;28;20018;-75
2022/07/11 10:53:47;;;;;;;4.33;3.07;;;;;;;-145.18;100.00;46541.25;5014183;28;20084;-76
2022/07/11 10:56:50;;;;;;;4.30;3.90;;;;;;;-145.18;100.00;46545.16;5013629;28;20026;-76
2022/07/11 10:59:17;;;;;;;4.13;3.47;;;;;;;-145.18;100.00;46539.28;4995319;28;20062;-75
2022/07/11 11:02:11;;;;;;;3.97;3.00;;;;;;;-145.18;100.00;46537.34;5013675;28;20030;-75